createdAt,value
2018-09-27T00:03:39.595Z,12.8
2018-09-27T00:13:38.818Z,12.7
2018-09-27T00:23:38.029Z,12.7
2018-09-27T00:33:37.250Z,12.7
2018-09-27T00:43:36.472Z,12.9
2018-09-27T00:53:35.689Z,12.6
2018-09-27T01:03:34.898Z,13.2
2018-09-27T01:13:34.122Z,12.8
2018-09-27T01:23:33.340Z,13.1
2018-09-27T01:33:32.558Z,13.2
2018-09-27T01:43:31.778Z,12.5
2018-09-27T01:53:30.995Z,13
2018-09-27T02:03:30.206Z,12.7
2018-09-27T02:13:29.428Z,12.7
2018-09-27T02:23:28.641Z,12.6
2018-09-27T02:33:27.859Z,13.2
2018-09-27T02:43:27.081Z,12.5
2018-09-27T02:53:26.298Z,13.2
2018-09-27T03:03:25.514Z,13
2018-09-27T03:13:24.728Z,13.1
2018-09-27T03:23:23.953Z,13.1
2018-09-27T03:33:23.180Z,12.5
2018-09-27T03:43:22.388Z,12.4
2018-09-27T03:53:21.610Z,12.7
2018-09-27T04:03:20.861Z,12.9
2018-09-27T04:13:20.042Z,13.1
2018-09-27T04:23:19.261Z,12.7
2018-09-27T04:33:18.485Z,13.2
2018-09-27T04:43:17.699Z,12.7
2018-09-27T04:53:16.920Z,12.6
2018-09-27T05:03:16.142Z,12.6
2018-09-27T05:13:15.359Z,13.4
2018-09-27T05:23:14.577Z,14.4
2018-09-27T05:33:13.788Z,14
2018-09-27T05:43:13.015Z,13.8
2018-09-27T05:53:12.231Z,13.8
2018-09-27T06:03:11.441Z,14.7
2018-09-27T06:13:10.670Z,14.7
2018-09-27T06:23:09.887Z,13.9
2018-09-27T06:33:09.105Z,14.6
2018-09-27T06:43:08.317Z,14.7
2018-09-27T06:53:07.537Z,14.4
2018-09-27T07:03:06.754Z,13.9
2018-09-27T07:13:05.978Z,14.5
2018-09-27T07:23:05.193Z,14.6
2018-09-27T07:33:04.414Z,14.1
2018-09-27T07:43:03.625Z,14.1
2018-09-27T07:53:02.844Z,14.4
2018-09-27T08:03:02.108Z,14.6
2018-09-27T08:13:01.286Z,14.6
2018-09-27T08:23:00.546Z,14.1
2018-09-27T08:32:59.729Z,14.8
2018-09-27T08:42:58.931Z,14.6
2018-09-27T08:52:58.160Z,13.9
2018-09-27T09:02:57.371Z,14.4
2018-09-27T09:12:56.638Z,14.4
2018-09-27T09:22:55.801Z,14.4
2018-09-27T09:32:55.019Z,13.9
2018-09-27T09:42:54.242Z,14.6
2018-09-27T09:52:53.454Z,14.7
2018-09-27T10:02:52.672Z,14.7
2018-09-27T10:12:51.888Z,14.5
2018-09-27T10:22:51.102Z,14.6
2018-09-27T10:32:50.320Z,14.5
2018-09-27T10:42:49.539Z,14.7
2018-09-27T10:52:48.756Z,14.7
2018-09-27T11:02:47.970Z,14.6
2018-09-27T11:12:47.186Z,14.1
2018-09-27T11:22:46.412Z,14.6
2018-09-27T11:32:45.617Z,14.4
2018-09-27T11:42:44.930Z,14.7
2018-09-27T11:52:44.052Z,14.7
2018-09-27T12:02:43.264Z,13.8
2018-09-27T12:12:42.487Z,14.5
2018-09-27T12:22:41.699Z,14.4
2018-09-27T12:32:40.915Z,13.8
2018-09-27T12:42:40.222Z,14.1
2018-09-27T12:52:39.375Z,13.4
2018-09-27T13:02:38.694Z,13.5
2018-09-27T13:12:37.876Z,13.3
2018-09-27T13:22:37.004Z,13.3
2018-09-27T13:32:36.222Z,13
2018-09-27T13:42:35.433Z,13.3
2018-09-27T13:52:34.654Z,12.8
2018-09-27T14:02:33.873Z,13.1
2018-09-27T14:12:33.084Z,13.1
2018-09-27T14:22:32.312Z,13.1
2018-09-27T14:32:31.516Z,12.8
2018-09-27T14:42:30.752Z,13.2
2018-09-27T14:52:30.002Z,13.2
2018-09-27T15:02:29.228Z,12.5
2018-09-27T15:12:28.405Z,13
2018-09-27T15:22:27.617Z,13.1
2018-09-27T15:32:26.817Z,12.5
2018-09-27T15:42:26.033Z,13
2018-09-27T15:52:25.251Z,12.7
2018-09-27T16:02:24.471Z,12.5
2018-09-27T16:12:23.687Z,12.7
2018-09-27T16:22:22.913Z,13.2
2018-09-27T16:32:22.124Z,12.8
2018-09-27T16:42:21.333Z,12.8
2018-09-27T16:52:20.555Z,13.1
2018-09-27T17:02:19.769Z,13
2018-09-27T17:12:18.983Z,12.5
2018-09-27T17:22:18.200Z,12.6
2018-09-27T17:32:17.414Z,12.5
2018-09-27T17:42:16.634Z,12.7
2018-09-27T17:52:15.853Z,12.8
2018-09-27T18:02:15.069Z,12.5
2018-09-27T18:12:14.287Z,13.2
2018-09-27T18:32:12.742Z,13
2018-09-27T18:42:11.937Z,12.5
2018-09-27T18:52:11.154Z,12.4
2018-09-27T19:02:10.375Z,12.7
2018-09-27T19:12:09.601Z,12.9
2018-09-27T19:22:08.813Z,13
2018-09-27T19:32:08.045Z,12.9
2018-09-27T19:42:07.300Z,12.6
2018-09-27T19:52:06.524Z,13.1
2018-09-27T20:02:05.688Z,12.8
2018-09-27T20:12:04.909Z,13.2
2018-09-27T20:22:04.145Z,13.1
2018-09-27T20:32:03.346Z,12.6
2018-09-27T20:42:02.564Z,13.2
2018-09-27T20:52:01.787Z,13.1
2018-09-27T21:02:01.003Z,13.1
2018-09-27T21:12:00.226Z,12.7
2018-09-27T21:21:59.440Z,12.5
2018-09-27T21:31:58.661Z,12.6
2018-09-27T21:41:57.883Z,13.2
2018-09-27T21:51:57.123Z,12.8
2018-09-27T22:01:56.333Z,12.7
2018-09-27T22:11:55.545Z,13.1
2018-09-27T22:21:54.763Z,13
2018-09-27T22:31:53.980Z,13.2
2018-09-27T22:41:53.196Z,13.1
2018-09-27T22:51:52.416Z,13.1
2018-09-27T23:01:51.632Z,12.6
2018-09-27T23:11:50.849Z,12.9
2018-09-27T23:21:50.057Z,12.5
2018-09-27T23:31:49.269Z,13.1
2018-09-27T23:41:48.486Z,13.2
2018-09-27T23:51:47.705Z,12.9
